createdAt,value
2022-10-13T00:00:02.197Z,1006.19
2022-10-13T00:00:12.117Z,1006.22
2022-10-13T00:00:22.107Z,1006.16
2022-10-13T00:00:32.117Z,1006.15
2022-10-13T00:00:42.186Z,1006.22
2022-10-13T00:00:52.216Z,1006.20
2022-10-13T00:01:02.198Z,1006.18
2022-10-13T00:01:12.374Z,1006.19
2022-10-13T00:01:22.178Z,1006.21
2022-10-13T00:01:32.116Z,1006.19
2022-10-13T00:01:42.104Z,1006.22
2022-10-13T00:01:52.105Z,1006.20
2022-10-13T00:02:02.147Z,1006.22
2022-10-13T00:02:12.128Z,1006.18
2022-10-13T00:02:22.120Z,1006.18
2022-10-13T00:02:32.142Z,1006.21
2022-10-13T00:02:42.179Z,1006.20
2022-10-13T00:02:52.123Z,1006.20
2022-10-13T00:03:02.100Z,1006.22
2022-10-13T00:03:12.096Z,1006.19
2022-10-13T00:03:22.108Z,1006.24
2022-10-13T00:03:32.108Z,1006.21
2022-10-13T00:03:42.122Z,1006.24
2022-10-13T00:03:52.118Z,1006.20
2022-10-13T00:04:02.694Z,1006.19
2022-10-13T00:04:12.107Z,1006.22
2022-10-13T00:04:22.087Z,1006.21
2022-10-13T00:04:32.109Z,1006.20
2022-10-13T00:04:42.093Z,1006.17
2022-10-13T00:04:52.091Z,1006.21
2022-10-13T00:05:02.103Z,1006.21
2022-10-13T00:05:12.101Z,1006.19
2022-10-13T00:05:22.083Z,1006.21
2022-10-13T00:05:32.084Z,1006.16
2022-10-13T00:05:42.091Z,1006.18
2022-10-13T00:05:52.096Z,1006.19
2022-10-13T00:06:02.688Z,1006.18
2022-10-13T00:06:12.129Z,1006.17
2022-10-13T00:06:22.084Z,1006.19
2022-10-13T00:06:32.088Z,1006.16
2022-10-13T00:06:42.088Z,1006.16
2022-10-13T00:06:52.091Z,1006.17
2022-10-13T00:07:02.119Z,1006.18
2022-10-13T00:07:12.115Z,1006.16
2022-10-13T00:07:22.112Z,1006.18
2022-10-13T00:07:32.101Z,1006.17
2022-10-13T00:07:42.080Z,1006.18
2022-10-13T00:07:52.159Z,1006.17
2022-10-13T00:08:02.709Z,1006.17
2022-10-13T00:08:12.097Z,1006.18
2022-10-13T00:08:22.096Z,1006.18
2022-10-13T00:08:32.113Z,1006.18
2022-10-13T00:08:42.067Z,1006.14
2022-10-13T00:08:52.094Z,1006.19
2022-10-13T00:09:02.701Z,1006.17
2022-10-13T00:09:12.138Z,1006.17
2022-10-13T00:09:22.101Z,1006.19
2022-10-13T00:09:32.111Z,1006.18
2022-10-13T00:09:42.072Z,1006.13
2022-10-13T00:09:52.069Z,1006.15
2022-10-13T00:10:02.083Z,1006.20
2022-10-13T00:10:12.074Z,1006.14
2022-10-13T00:10:22.130Z,1006.20
2022-10-13T00:10:32.064Z,1006.18
2022-10-13T00:10:42.080Z,1006.18
2022-10-13T00:10:52.693Z,1006.18
2022-10-13T00:11:02.074Z,1006.19
2022-10-13T00:11:12.241Z,1006.18
2022-10-13T00:11:22.100Z,1006.15
2022-10-13T00:11:32.064Z,1006.19
2022-10-13T00:11:42.058Z,1006.16
2022-10-13T00:11:52.061Z,1006.17
2022-10-13T00:12:02.168Z,1006.17
2022-10-13T00:12:12.105Z,1006.18
2022-10-13T00:12:22.090Z,1006.16
2022-10-13T00:12:32.072Z,1006.16
2022-10-13T00:12:42.057Z,1006.16
2022-10-13T00:12:52.060Z,1006.19
2022-10-13T00:13:02.109Z,1006.16
2022-10-13T00:13:12.058Z,1006.18
2022-10-13T00:13:22.169Z,1006.17
2022-10-13T00:13:32.064Z,1006.17
2022-10-13T00:13:42.069Z,1006.17
2022-10-13T00:13:52.723Z,1006.17
2022-10-13T00:14:02.055Z,1006.18
2022-10-13T00:14:12.062Z,1006.15
2022-10-13T00:14:22.104Z,1006.16
2022-10-13T00:14:32.139Z,1006.17
2022-10-13T00:14:42.054Z,1006.15
2022-10-13T00:14:52.100Z,1006.18
2022-10-13T00:15:02.792Z,1006.20
2022-10-13T00:15:12.053Z,1006.17
2022-10-13T00:15:22.056Z,1006.15
2022-10-13T00:15:32.099Z,1006.15
2022-10-13T00:15:42.041Z,1006.17
2022-10-13T00:15:52.041Z,1006.16
2022-10-13T00:16:02.100Z,1006.14
2022-10-13T00:16:12.041Z,1006.15
2022-10-13T00:16:22.093Z,1006.18
2022-10-13T00:16:32.065Z,1006.14
2022-10-13T00:16:42.043Z,1006.15
2022-10-13T00:16:52.056Z,1006.12
2022-10-13T00:17:02.050Z,1006.20
2022-10-13T00:17:12.061Z,1006.17
2022-10-13T00:17:22.738Z,1006.16
2022-10-13T00:17:32.055Z,1006.10
2022-10-13T00:17:42.028Z,1006.17
2022-10-13T00:17:52.030Z,1006.16
2022-10-13T00:18:02.029Z,1006.11
2022-10-13T00:18:12.129Z,1006.13
2022-10-13T00:18:22.052Z,1006.11
2022-10-13T00:18:32.062Z,1006.16
2022-10-13T00:18:42.101Z,1006.09
2022-10-13T00:18:52.047Z,1006.17
2022-10-13T00:19:02.165Z,1006.13
2022-10-13T00:19:15.051Z,1006.12
2022-10-13T00:19:22.042Z,1006.13
2022-10-13T00:19:32.022Z,1006.11
2022-10-13T00:19:42.044Z,1006.11
2022-10-13T00:19:52.023Z,1006.09
2022-10-13T00:20:04.795Z,1006.13
2022-10-13T00:20:12.031Z,1006.12
2022-10-13T00:20:22.046Z,1006.10
2022-10-13T00:20:32.716Z,1006.12
2022-10-13T00:20:42.733Z,1006.15
2022-10-13T00:20:52.025Z,1006.15
2022-10-13T00:21:02.050Z,1006.15
2022-10-13T00:21:12.098Z,1006.13
2022-10-13T00:21:22.019Z,1006.15
2022-10-13T00:21:32.020Z,1006.11
2022-10-13T00:21:42.715Z,1006.15
2022-10-13T00:21:52.034Z,1006.14
2022-10-13T00:22:02.024Z,1006.16
2022-10-13T00:22:12.021Z,1006.07
2022-10-13T00:22:22.029Z,1006.11
2022-10-13T00:22:32.033Z,1006.14
2022-10-13T00:22:42.170Z,1006.14
2022-10-13T00:22:52.013Z,1006.12
2022-10-13T00:23:02.014Z,1006.11
2022-10-13T00:23:12.009Z,1006.09
2022-10-13T00:23:22.089Z,1006.12
2022-10-13T00:23:32.019Z,1006.12
2022-10-13T00:23:42.060Z,1006.14
2022-10-13T00:23:52.014Z,1006.12
2022-10-13T00:24:02.003Z,1006.11
2022-10-13T00:24:14.774Z,1006.09
2022-10-13T00:24:21.999Z,1006.09
2022-10-13T00:24:32.021Z,1006.06
2022-10-13T00:24:42.713Z,1006.04
2022-10-13T00:24:52.096Z,1006.07
2022-10-13T00:25:02.005Z,1006.09
2022-10-13T00:25:11.997Z,1006.08
2022-10-13T00:25:22.004Z,1006.09
2022-10-13T00:25:32.030Z,1006.09
2022-10-13T00:25:41.990Z,1006.07
2022-10-13T00:25:52.014Z,1006.10
2022-10-13T00:26:02.030Z,1006.10
2022-10-13T00:26:12.074Z,1006.08
2022-10-13T00:26:22.000Z,1006.12
2022-10-13T00:26:32.021Z,1006.12
2022-10-13T00:26:41.986Z,1006.08
2022-10-13T00:26:52.728Z,1006.10
2022-10-13T00:27:01.992Z,1006.12
2022-10-13T00:27:11.997Z,1006.11
2022-10-13T00:27:21.991Z,1006.08
2022-10-13T00:27:32.008Z,1006.09
2022-10-13T00:27:41.989Z,1006.08
2022-10-13T00:27:51.991Z,1006.11
2022-10-13T00:28:01.982Z,1006.10
2022-10-13T00:28:12.133Z,1006.08
2022-10-13T00:28:22.063Z,1006.09
2022-10-13T00:28:32.108Z,1006.09
2022-10-13T00:28:42.020Z,1006.10
2022-10-13T00:28:53.084Z,1006.10
2022-10-13T00:29:02.067Z,1006.12
2022-10-13T00:29:11.998Z,1006.11
2022-10-13T00:29:21.998Z,1006.12
2022-10-13T00:29:31.999Z,1006.10
2022-10-13T00:29:41.998Z,1006.08
2022-10-13T00:29:52.007Z,1006.12
2022-10-13T00:30:01.974Z,1006.05
2022-10-13T00:30:11.990Z,1006.08
2022-10-13T00:30:22.016Z,1006.07
2022-10-13T00:30:31.977Z,1006.06
2022-10-13T00:30:42.009Z,1006.12
2022-10-13T00:30:51.974Z,1006.08
2022-10-13T00:31:01.996Z,1006.10
2022-10-13T00:31:11.965Z,1006.10
2022-10-13T00:31:22.019Z,1006.09
2022-10-13T00:31:32.823Z,1006.11
2022-10-13T00:31:41.987Z,1006.10
2022-10-13T00:31:51.981Z,1006.07
2022-10-13T00:32:02.046Z,1006.08
2022-10-13T00:32:11.975Z,1006.09
2022-10-13T00:32:22.001Z,1006.08
2022-10-13T00:32:31.984Z,1006.09
2022-10-13T00:32:41.976Z,1006.10
2022-10-13T00:32:52.051Z,1006.09
2022-10-13T00:33:02.017Z,1006.03
2022-10-13T00:33:12.100Z,1006.07
2022-10-13T00:33:21.960Z,1006.08
2022-10-13T00:33:31.986Z,1006.07
2022-10-13T00:33:42.049Z,1006.04
2022-10-13T00:33:51.960Z,1006.10
2022-10-13T00:34:01.966Z,1006.08
2022-10-13T00:34:12.002Z,1006.08
2022-10-13T00:34:21.959Z,1006.09
2022-10-13T00:34:32.090Z,1006.10
2022-10-13T00:34:42.028Z,1006.07
2022-10-13T00:34:51.961Z,1006.09
2022-10-13T00:35:01.980Z,1006.09
2022-10-13T00:35:11.972Z,1006.10
2022-10-13T00:35:21.960Z,1006.09
2022-10-13T00:35:31.952Z,1006.08
2022-10-13T00:35:41.971Z,1006.11
2022-10-13T00:35:51.967Z,1006.10
2022-10-13T00:36:01.950Z,1006.09
2022-10-13T00:36:12.768Z,1006.11
2022-10-13T00:36:21.999Z,1006.12
2022-10-13T00:36:31.944Z,1006.09
2022-10-13T00:36:41.946Z,1006.10
2022-10-13T00:36:51.969Z,1006.12
2022-10-13T00:37:01.952Z,1006.07
2022-10-13T00:37:12.019Z,1006.10
2022-10-13T00:37:22.023Z,1006.13
2022-10-13T00:37:31.940Z,1006.12
2022-10-13T00:37:41.972Z,1006.08
2022-10-13T00:37:51.999Z,1006.13
2022-10-13T00:38:01.941Z,1006.16
2022-10-13T00:38:11.939Z,1006.14
2022-10-13T00:38:22.004Z,1006.15
2022-10-13T00:38:31.963Z,1006.15
2022-10-13T00:38:41.954Z,1006.13
2022-10-13T00:38:52.016Z,1006.13
2022-10-13T00:39:01.936Z,1006.16
2022-10-13T00:39:11.971Z,1006.11
2022-10-13T00:39:22.725Z,1006.12
2022-10-13T00:39:31.938Z,1006.15
2022-10-13T00:39:41.935Z,1006.11
2022-10-13T00:39:51.930Z,1006.16
2022-10-13T00:40:01.944Z,1006.14
2022-10-13T00:40:11.935Z,1006.15
2022-10-13T00:40:22.064Z,1006.14
2022-10-13T00:40:31.930Z,1006.13
2022-10-13T00:40:41.969Z,1006.11
2022-10-13T00:40:51.926Z,1006.17
2022-10-13T00:41:01.938Z,1006.12
2022-10-13T00:41:11.939Z,1006.14
2022-10-13T00:41:21.962Z,1006.12
2022-10-13T00:41:32.054Z,1006.14
2022-10-13T00:41:41.940Z,1006.15
2022-10-13T00:41:51.929Z,1006.16
2022-10-13T00:42:01.937Z,1006.13
2022-10-13T00:42:11.916Z,1006.11
2022-10-13T00:42:21.999Z,1006.13
2022-10-13T00:42:31.936Z,1006.12
2022-10-13T00:42:41.920Z,1006.16
2022-10-13T00:42:51.958Z,1006.13
2022-10-13T00:43:01.937Z,1006.17
2022-10-13T00:43:11.940Z,1006.15
2022-10-13T00:43:22.740Z,1006.18
2022-10-13T00:43:32.715Z,1006.17
2022-10-13T00:43:41.936Z,1006.17
2022-10-13T00:43:51.925Z,1006.20
2022-10-13T00:44:02.783Z,1006.17
2022-10-13T00:44:11.915Z,1006.14
2022-10-13T00:44:21.926Z,1006.17
2022-10-13T00:44:31.947Z,1006.18
2022-10-13T00:44:41.915Z,1006.17
2022-10-13T00:44:51.925Z,1006.21
2022-10-13T00:45:01.976Z,1006.17
2022-10-13T00:45:11.907Z,1006.17
2022-10-13T00:45:21.923Z,1006.15
2022-10-13T00:45:31.923Z,1006.19
2022-10-13T00:45:41.952Z,1006.18
2022-10-13T00:45:51.909Z,1006.13
2022-10-13T00:46:01.904Z,1006.20
2022-10-13T00:46:11.934Z,1006.18
2022-10-13T00:46:21.905Z,1006.20
2022-10-13T00:46:31.905Z,1006.23
2022-10-13T00:46:41.919Z,1006.21
2022-10-13T00:46:51.940Z,1006.18
2022-10-13T00:47:01.905Z,1006.19
2022-10-13T00:47:11.931Z,1006.19
2022-10-13T00:47:21.897Z,1006.17
2022-10-13T00:47:31.927Z,1006.16
2022-10-13T00:47:42.734Z,1006.19
2022-10-13T00:47:51.899Z,1006.16
2022-10-13T00:48:01.913Z,1006.18
2022-10-13T00:48:11.895Z,1006.20
2022-10-13T00:48:21.921Z,1006.17
2022-10-13T00:48:31.903Z,1006.12
2022-10-13T00:48:41.904Z,1006.16
2022-10-13T00:48:52.057Z,1006.14
2022-10-13T00:49:02.726Z,1006.15
2022-10-13T00:49:11.930Z,1006.13
2022-10-13T00:49:21.893Z,1006.16
2022-10-13T00:49:31.898Z,1006.14
2022-10-13T00:49:41.914Z,1006.12
2022-10-13T00:49:51.973Z,1006.15
2022-10-13T00:50:01.898Z,1006.13
2022-10-13T00:50:11.895Z,1006.12
2022-10-13T00:50:21.912Z,1006.13
2022-10-13T00:50:31.893Z,1006.15
2022-10-13T00:50:41.891Z,1006.11
2022-10-13T00:50:52.718Z,1006.12
2022-10-13T00:51:01.906Z,1006.14
2022-10-13T00:51:11.983Z,1006.12
2022-10-13T00:51:21.886Z,1006.10
2022-10-13T00:51:31.879Z,1006.12
2022-10-13T00:51:42.012Z,1006.12
2022-10-13T00:51:52.714Z,1006.11
2022-10-13T00:52:01.877Z,1006.11
2022-10-13T00:52:11.871Z,1006.13
2022-10-13T00:52:21.937Z,1006.10
2022-10-13T00:52:31.873Z,1006.07
2022-10-13T00:52:41.948Z,1006.10
2022-10-13T00:52:51.905Z,1006.09
2022-10-13T00:53:02.019Z,1006.11
2022-10-13T00:53:11.870Z,1006.11
2022-10-13T00:53:21.906Z,1006.10
2022-10-13T00:53:31.882Z,1006.06
2022-10-13T00:53:41.883Z,1006.09
2022-10-13T00:53:52.760Z,1006.06
2022-10-13T00:54:01.961Z,1006.07
2022-10-13T00:54:11.925Z,1006.07
2022-10-13T00:54:21.913Z,1006.10
2022-10-13T00:54:31.859Z,1006.06
2022-10-13T00:54:41.963Z,1006.06
2022-10-13T00:54:51.869Z,1006.06
2022-10-13T00:55:01.870Z,1006.07
2022-10-13T00:55:11.878Z,1006.07
2022-10-13T00:55:21.884Z,1006.05
2022-10-13T00:55:31.856Z,1006.07
2022-10-13T00:55:41.860Z,1006.03
2022-10-13T00:55:51.901Z,1006.08
2022-10-13T00:56:02.725Z,1006.08
2022-10-13T00:56:11.879Z,1006.07
2022-10-13T00:56:21.902Z,1006.08
2022-10-13T00:56:31.903Z,1006.06
2022-10-13T00:56:41.875Z,1006.08
2022-10-13T00:56:51.906Z,1006.06
2022-10-13T00:57:01.872Z,1006.01
2022-10-13T00:57:11.857Z,1006.10
2022-10-13T00:57:21.907Z,1006.07
2022-10-13T00:57:31.887Z,1006.07
2022-10-13T00:57:41.888Z,1006.10
2022-10-13T00:57:51.920Z,1006.08
2022-10-13T00:58:05.327Z,1006.05
2022-10-13T00:58:11.919Z,1006.03
2022-10-13T00:58:21.855Z,1006.06
2022-10-13T00:58:31.864Z,1006.03
2022-10-13T00:58:41.877Z,1006.07
2022-10-13T00:58:51.877Z,1006.03
2022-10-13T00:59:01.880Z,1006.07
2022-10-13T00:59:11.841Z,1006.07
2022-10-13T00:59:21.890Z,1006.04
2022-10-13T00:59:31.894Z,1006.05
2022-10-13T00:59:41.915Z,1006.07
2022-10-13T00:59:51.842Z,1006.05
2022-10-13T01:00:01.856Z,1006.06
2022-10-13T01:00:11.974Z,1006.06
2022-10-13T01:00:21.843Z,1006.08
2022-10-13T01:00:32.758Z,1006.07
2022-10-13T01:00:41.956Z,1006.07
2022-10-13T01:00:51.883Z,1006.08
2022-10-13T01:01:02.797Z,1006.08
2022-10-13T01:01:11.930Z,1006.05
2022-10-13T01:01:21.839Z,1006.08
2022-10-13T01:01:31.834Z,1006.07
2022-10-13T01:01:41.839Z,1006.02
2022-10-13T01:01:51.844Z,1006.09
2022-10-13T01:02:01.833Z,1006.04
2022-10-13T01:02:11.860Z,1006.09
2022-10-13T01:02:22.160Z,1006.05
2022-10-13T01:02:31.840Z,1006.05
2022-10-13T01:02:41.924Z,1006.08
2022-10-13T01:02:51.870Z,1006.10
2022-10-13T01:03:01.875Z,1006.07
2022-10-13T01:03:11.846Z,1006.06
2022-10-13T01:03:21.846Z,1006.07
2022-10-13T01:03:31.826Z,1006.07
2022-10-13T01:03:41.828Z,1006.10
2022-10-13T01:03:51.889Z,1006.08
2022-10-13T01:04:01.831Z,1006.08
2022-10-13T01:04:12.040Z,1006.08
2022-10-13T01:04:21.897Z,1006.03
2022-10-13T01:04:31.863Z,1006.03
2022-10-13T01:04:41.858Z,1006.04
2022-10-13T01:04:51.850Z,1006.09
2022-10-13T01:05:01.819Z,1006.04
2022-10-13T01:05:11.820Z,1006.03
2022-10-13T01:05:21.851Z,1006.04
2022-10-13T01:05:31.813Z,1006.04
2022-10-13T01:05:41.835Z,1006.08
2022-10-13T01:05:51.811Z,1006.03
2022-10-13T01:06:02.847Z,1006.05
2022-10-13T01:06:11.851Z,1006.04
2022-10-13T01:06:23.863Z,1006.07
2022-10-13T01:06:31.809Z,1006.03
2022-10-13T01:06:41.868Z,1006.03
2022-10-13T01:06:51.879Z,1006.04
2022-10-13T01:07:01.823Z,1006.05
2022-10-13T01:07:11.929Z,1006.00
2022-10-13T01:07:21.809Z,1006.06
2022-10-13T01:07:31.823Z,1006.02
2022-10-13T01:07:41.819Z,1006.04
2022-10-13T01:07:51.804Z,1006.04
2022-10-13T01:08:01.829Z,1006.05
2022-10-13T01:08:11.803Z,1006.09
2022-10-13T01:08:21.905Z,1006.09
2022-10-13T01:08:32.726Z,1006.11
2022-10-13T01:08:41.803Z,1006.10
2022-10-13T01:08:51.802Z,1006.08
2022-10-13T01:09:01.833Z,1006.05
2022-10-13T01:09:11.809Z,1006.08
2022-10-13T01:09:21.812Z,1006.06
2022-10-13T01:09:31.795Z,1006.07
2022-10-13T01:09:41.876Z,1006.05
2022-10-13T01:09:52.268Z,1006.02
2022-10-13T01:10:01.809Z,1006.02
2022-10-13T01:10:11.789Z,1006.00
2022-10-13T01:10:21.799Z,1006.06
2022-10-13T01:10:31.797Z,1006.02
2022-10-13T01:10:41.913Z,1006.02
2022-10-13T01:10:51.803Z,1006.04
2022-10-13T01:11:01.795Z,1006.05
2022-10-13T01:11:11.788Z,1006.05
2022-10-13T01:11:21.824Z,1005.99
2022-10-13T01:11:31.783Z,1006.05
2022-10-13T01:11:41.800Z,1006.02
2022-10-13T01:11:51.796Z,1006.03
2022-10-13T01:12:01.890Z,1006.01
2022-10-13T01:12:11.801Z,1006.03
2022-10-13T01:12:22.218Z,1006.01
2022-10-13T01:12:31.793Z,1006.06
2022-10-13T01:12:42.926Z,1006.02
2022-10-13T01:12:51.802Z,1006.03
2022-10-13T01:13:01.775Z,1006.03
2022-10-13T01:13:11.803Z,1006.03
2022-10-13T01:13:21.777Z,1006.02
2022-10-13T01:13:31.790Z,1006.01
2022-10-13T01:13:41.778Z,1006.05
2022-10-13T01:13:51.951Z,1006.03
2022-10-13T01:14:01.860Z,1006.00
2022-10-13T01:14:11.802Z,1006.04
2022-10-13T01:14:21.776Z,1006.02
2022-10-13T01:14:31.793Z,1006.03
2022-10-13T01:14:41.787Z,1006.03
2022-10-13T01:14:51.857Z,1005.98
2022-10-13T01:15:01.865Z,1006.04
2022-10-13T01:15:11.798Z,1006.02
2022-10-13T01:15:22.748Z,1005.95
2022-10-13T01:15:31.775Z,1006.02
2022-10-13T01:15:41.828Z,1006.01
2022-10-13T01:15:51.768Z,1005.99
2022-10-13T01:16:01.811Z,1006.03
2022-10-13T01:16:11.766Z,1005.94
2022-10-13T01:16:21.763Z,1006.00
2022-10-13T01:16:31.775Z,1006.01
2022-10-13T01:16:41.788Z,1006.00
2022-10-13T01:16:51.792Z,1005.98
2022-10-13T01:17:01.772Z,1006.01
2022-10-13T01:17:11.769Z,1005.95
2022-10-13T01:17:21.766Z,1005.96
2022-10-13T01:17:31.784Z,1005.98
2022-10-13T01:17:41.810Z,1005.98
2022-10-13T01:17:51.769Z,1005.97
2022-10-13T01:18:01.767Z,1005.99
2022-10-13T01:18:11.766Z,1005.99
2022-10-13T01:18:21.768Z,1005.94
2022-10-13T01:18:31.777Z,1005.95
2022-10-13T01:18:41.755Z,1005.93
2022-10-13T01:18:51.770Z,1005.95
2022-10-13T01:19:01.880Z,1005.96
2022-10-13T01:19:11.784Z,1005.96
2022-10-13T01:19:21.779Z,1005.92
2022-10-13T01:19:31.850Z,1005.95
2022-10-13T01:19:41.746Z,1005.94
2022-10-13T01:19:52.743Z,1005.96
2022-10-13T01:20:01.744Z,1005.98
2022-10-13T01:20:11.828Z,1005.94
2022-10-13T01:20:21.758Z,1005.93
2022-10-13T01:20:31.747Z,1005.94
2022-10-13T01:20:41.754Z,1005.96
2022-10-13T01:20:51.764Z,1005.96
2022-10-13T01:21:01.793Z,1005.90
2022-10-13T01:21:11.757Z,1005.98
2022-10-13T01:21:21.767Z,1006.01
2022-10-13T01:21:31.741Z,1005.99
2022-10-13T01:21:41.753Z,1006.01
2022-10-13T01:21:51.762Z,1005.99
2022-10-13T01:22:01.742Z,1005.96
2022-10-13T01:22:11.745Z,1005.99
2022-10-13T01:22:22.058Z,1005.94
2022-10-13T01:22:31.737Z,1005.97
2022-10-13T01:22:41.740Z,1005.96
2022-10-13T01:22:51.740Z,1005.98
2022-10-13T01:23:01.754Z,1005.97
2022-10-13T01:23:11.791Z,1005.99
2022-10-13T01:23:21.730Z,1005.95
2022-10-13T01:23:31.738Z,1005.95
2022-10-13T01:23:41.740Z,1005.97
2022-10-13T01:23:51.742Z,1005.99
2022-10-13T01:24:01.742Z,1006.01
2022-10-13T01:24:11.765Z,1005.99
2022-10-13T01:24:21.724Z,1006.00
2022-10-13T01:24:31.732Z,1006.01
2022-10-13T01:24:41.750Z,1006.01
2022-10-13T01:24:51.730Z,1006.01
2022-10-13T01:25:02.225Z,1006.00
2022-10-13T01:25:11.765Z,1005.99
2022-10-13T01:25:22.769Z,1006.03
2022-10-13T01:25:31.728Z,1006.02
2022-10-13T01:25:41.754Z,1006.00
2022-10-13T01:25:51.722Z,1006.00
2022-10-13T01:26:01.850Z,1005.99
2022-10-13T01:26:11.731Z,1006.03
2022-10-13T01:26:21.723Z,1006.00
2022-10-13T01:26:31.735Z,1006.01
2022-10-13T01:26:41.715Z,1005.99
2022-10-13T01:26:51.731Z,1005.96
2022-10-13T01:27:01.980Z,1005.99
2022-10-13T01:27:11.735Z,1006.00
2022-10-13T01:27:21.719Z,1005.97
2022-10-13T01:27:31.722Z,1006.00
2022-10-13T01:27:41.710Z,1006.00
2022-10-13T01:27:51.733Z,1005.97
2022-10-13T01:28:01.743Z,1005.96
2022-10-13T01:28:11.759Z,1005.96
2022-10-13T01:28:21.752Z,1005.94
2022-10-13T01:28:31.760Z,1005.96
2022-10-13T01:28:41.787Z,1005.94
2022-10-13T01:28:51.721Z,1005.95
2022-10-13T01:29:01.715Z,1005.93
2022-10-13T01:29:11.730Z,1005.92
2022-10-13T01:29:21.740Z,1005.96
2022-10-13T01:29:31.754Z,1005.93
2022-10-13T01:29:41.718Z,1005.87
2022-10-13T01:29:51.718Z,1005.88
2022-10-13T01:30:01.707Z,1005.89
2022-10-13T01:30:11.715Z,1005.85
2022-10-13T01:30:21.716Z,1005.89
2022-10-13T01:30:31.759Z,1005.85
2022-10-13T01:30:41.713Z,1005.85
2022-10-13T01:30:51.719Z,1005.91
2022-10-13T01:31:01.750Z,1005.84
2022-10-13T01:31:11.729Z,1005.88
2022-10-13T01:31:21.719Z,1005.85
2022-10-13T01:31:31.700Z,1005.87
2022-10-13T01:31:41.695Z,1005.85
2022-10-13T01:31:51.696Z,1005.84
2022-10-13T01:32:02.234Z,1005.84
2022-10-13T01:32:11.692Z,1005.84
2022-10-13T01:32:21.931Z,1005.89
2022-10-13T01:32:31.706Z,1005.84
2022-10-13T01:32:41.694Z,1005.83
2022-10-13T01:32:51.702Z,1005.89
2022-10-13T01:33:01.700Z,1005.88
2022-10-13T01:33:11.700Z,1005.90
2022-10-13T01:33:21.700Z,1005.92
2022-10-13T01:33:31.708Z,1005.90
2022-10-13T01:33:41.697Z,1005.88
2022-10-13T01:33:52.240Z,1005.90
2022-10-13T01:34:01.708Z,1005.90
2022-10-13T01:34:11.705Z,1005.92
2022-10-13T01:34:21.679Z,1005.90
2022-10-13T01:34:31.685Z,1005.89
2022-10-13T01:34:41.684Z,1005.90
2022-10-13T01:34:51.683Z,1005.93
2022-10-13T01:35:01.695Z,1005.89
2022-10-13T01:35:11.682Z,1005.88
2022-10-13T01:35:22.238Z,1005.87
2022-10-13T01:35:31.683Z,1005.91
2022-10-13T01:35:41.997Z,1005.88
2022-10-13T01:35:51.730Z,1005.91
2022-10-13T01:36:01.693Z,1005.87
2022-10-13T01:36:11.688Z,1005.92
2022-10-13T01:36:21.703Z,1005.91
2022-10-13T01:36:31.689Z,1005.88
2022-10-13T01:36:41.682Z,1005.84
2022-10-13T01:36:51.706Z,1005.86
2022-10-13T01:37:01.686Z,1005.86
2022-10-13T01:37:11.669Z,1005.90
2022-10-13T01:37:21.665Z,1005.90
2022-10-13T01:37:31.672Z,1005.90
2022-10-13T01:37:41.681Z,1005.90
2022-10-13T01:37:51.669Z,1005.83
2022-10-13T01:38:01.711Z,1005.85
2022-10-13T01:38:11.672Z,1005.90
2022-10-13T01:38:21.670Z,1005.81
2022-10-13T01:38:31.670Z,1005.92
2022-10-13T01:38:41.680Z,1005.84
2022-10-13T01:38:51.670Z,1005.89
2022-10-13T01:39:01.672Z,1005.88
2022-10-13T01:39:11.678Z,1005.87
2022-10-13T01:39:21.664Z,1005.92
2022-10-13T01:39:31.660Z,1005.91
2022-10-13T01:39:41.679Z,1005.91
2022-10-13T01:39:51.717Z,1005.88
2022-10-13T01:40:01.657Z,1005.92
2022-10-13T01:40:11.656Z,1005.90
2022-10-13T01:40:21.677Z,1005.90
2022-10-13T01:40:31.659Z,1005.92
2022-10-13T01:40:41.654Z,1005.93
2022-10-13T01:40:51.702Z,1005.91
2022-10-13T01:41:01.668Z,1005.95
2022-10-13T01:41:11.656Z,1005.92
2022-10-13T01:41:21.666Z,1005.90
2022-10-13T01:41:31.654Z,1005.92
2022-10-13T01:41:41.731Z,1005.93
2022-10-13T01:41:51.901Z,1005.92
2022-10-13T01:42:01.660Z,1005.91
2022-10-13T01:42:11.660Z,1005.90
2022-10-13T01:42:21.774Z,1005.88
2022-10-13T01:42:31.665Z,1005.88
2022-10-13T01:42:41.660Z,1005.86
2022-10-13T01:42:51.646Z,1005.88
2022-10-13T01:43:01.647Z,1005.85
2022-10-13T01:43:11.659Z,1005.87
2022-10-13T01:43:21.650Z,1005.88
2022-10-13T01:43:31.647Z,1005.85
2022-10-13T01:43:41.643Z,1005.85
2022-10-13T01:43:51.714Z,1005.87
2022-10-13T01:44:01.750Z,1005.87
2022-10-13T01:44:11.643Z,1005.84
2022-10-13T01:44:21.655Z,1005.84
2022-10-13T01:44:32.291Z,1005.81
2022-10-13T01:44:41.634Z,1005.85
2022-10-13T01:44:51.641Z,1005.84
2022-10-13T01:45:01.653Z,1005.89
2022-10-13T01:45:11.648Z,1005.87
2022-10-13T01:45:21.661Z,1005.85
2022-10-13T01:45:31.652Z,1005.85
2022-10-13T01:45:41.641Z,1005.85
2022-10-13T01:45:51.656Z,1005.85
2022-10-13T01:46:01.822Z,1005.82
2022-10-13T01:46:11.641Z,1005.88
2022-10-13T01:46:21.624Z,1005.78
2022-10-13T01:46:31.651Z,1005.77
2022-10-13T01:46:41.624Z,1005.81
2022-10-13T01:46:51.633Z,1005.78
2022-10-13T01:47:01.623Z,1005.82
2022-10-13T01:47:11.631Z,1005.83
2022-10-13T01:47:21.629Z,1005.81
2022-10-13T01:47:31.635Z,1005.80
2022-10-13T01:47:41.619Z,1005.85
2022-10-13T01:47:51.637Z,1005.78
2022-10-13T01:48:01.673Z,1005.75
2022-10-13T01:48:11.631Z,1005.84
2022-10-13T01:48:21.627Z,1005.81
2022-10-13T01:48:31.629Z,1005.79
2022-10-13T01:48:41.710Z,1005.80
2022-10-13T01:48:51.643Z,1005.75
2022-10-13T01:49:01.670Z,1005.79
2022-10-13T01:49:11.656Z,1005.83
2022-10-13T01:49:21.611Z,1005.76
2022-10-13T01:49:31.617Z,1005.82
2022-10-13T01:49:41.612Z,1005.74
2022-10-13T01:49:51.614Z,1005.78
2022-10-13T01:50:01.651Z,1005.79
2022-10-13T01:50:11.655Z,1005.76
2022-10-13T01:50:21.636Z,1005.82
2022-10-13T01:50:31.625Z,1005.79
2022-10-13T01:50:41.610Z,1005.79
2022-10-13T01:50:51.619Z,1005.77
2022-10-13T01:51:01.683Z,1005.77
2022-10-13T01:51:11.667Z,1005.79
2022-10-13T01:51:21.604Z,1005.79
2022-10-13T01:51:31.610Z,1005.81
2022-10-13T01:51:41.622Z,1005.79
2022-10-13T01:51:51.605Z,1005.78
2022-10-13T01:52:01.702Z,1005.81
2022-10-13T01:52:11.631Z,1005.79
2022-10-13T01:52:21.826Z,1005.73
2022-10-13T01:52:31.600Z,1005.79
2022-10-13T01:52:41.611Z,1005.78
2022-10-13T01:52:51.614Z,1005.79
2022-10-13T01:53:01.648Z,1005.77
2022-10-13T01:53:11.604Z,1005.80
2022-10-13T01:53:21.607Z,1005.79
2022-10-13T01:53:31.616Z,1005.77
2022-10-13T01:53:41.632Z,1005.77
2022-10-13T01:53:51.596Z,1005.76
2022-10-13T01:54:01.627Z,1005.77
2022-10-13T01:54:11.606Z,1005.76
2022-10-13T01:54:21.627Z,1005.77
2022-10-13T01:54:31.607Z,1005.76
2022-10-13T01:54:41.593Z,1005.74
2022-10-13T01:54:51.599Z,1005.73
2022-10-13T01:55:01.665Z,1005.71
2022-10-13T01:55:11.599Z,1005.73
2022-10-13T01:55:21.591Z,1005.69
2022-10-13T01:55:31.588Z,1005.74
2022-10-13T01:55:41.599Z,1005.72
2022-10-13T01:55:51.584Z,1005.74
2022-10-13T01:56:01.664Z,1005.76
2022-10-13T01:56:11.614Z,1005.71
2022-10-13T01:56:21.790Z,1005.74
2022-10-13T01:56:31.592Z,1005.71
2022-10-13T01:56:41.591Z,1005.70
2022-10-13T01:56:51.817Z,1005.69
2022-10-13T01:57:01.583Z,1005.72
2022-10-13T01:57:11.579Z,1005.69
2022-10-13T01:57:21.596Z,1005.68
2022-10-13T01:57:31.573Z,1005.68
2022-10-13T01:57:41.581Z,1005.67
2022-10-13T01:57:51.584Z,1005.67
2022-10-13T01:58:01.590Z,1005.68
2022-10-13T01:58:11.589Z,1005.69
2022-10-13T01:58:21.612Z,1005.65
2022-10-13T01:58:31.623Z,1005.69
2022-10-13T01:58:41.576Z,1005.67
2022-10-13T01:58:51.592Z,1005.69
2022-10-13T01:59:01.649Z,1005.67
2022-10-13T01:59:11.576Z,1005.67
2022-10-13T01:59:21.595Z,1005.67
2022-10-13T01:59:31.606Z,1005.68
2022-10-13T01:59:41.582Z,1005.67
2022-10-13T01:59:51.568Z,1005.68
2022-10-13T02:00:01.647Z,1005.71
2022-10-13T02:00:11.569Z,1005.69
2022-10-13T02:00:21.571Z,1005.68
2022-10-13T02:00:31.635Z,1005.64
2022-10-13T02:00:41.689Z,1005.68
2022-10-13T02:00:51.603Z,1005.69